Main page
METAR-TAF:

METAR-TAF

Airports :

Banja Luka International Airport

Banja Luka, Bosnia and Herzegovina

latitude: 44-47N, longitude: 017-13E, elevation: 156 m

Current weather observation

The report was made 36 minutes ago, at 20:00 UTC
Wind 3 kt from the South/Southeast
Temperature 0°C
Humidity 80%
Pressure 1025 hPa
Visibility 10 km or more
no clouds below 1500 m and no cumulonimbus

METAR: LQBK 202000Z 16003KT CAVOK 00/M03 Q1025 NOSIG

Time: 21:36 (20:36 UTC)

Forecast

The report was made 3 hours and 36 minutes ago, at 17:00 UTC
Forecast valid from 20 at 18 UTC to 21 at 18 UTC
Wind 5 kt from the South
Visibility 10 km or more
no clouds below 1500 m and no cumulonimbus
Temporary
from 21 at 09 UTC to 21 at 18 UTC
Wind 12 kt from the North/Northwest

TAF: LQBK 201700Z 2018/2118 17005KT CAVOK TX11/2113Z TNM02/2106Z TEMPO 2109/2118 34012KT

Weather observations and forecasts of more than 4000 airports (METAR and TAF reports).

The available stations are represented by yellow and red dots on the map.

Hover mouse over dot to see the name of the station.

Then click to see weather observations and forecasts.

To change the map : click on the green buttons with a black cross to zoom in, on the green button with a dash to zoom out, or on the green arrows for adjacent maps.


METAR-TAF: